Latest Weather Observations for Broken Hill Airport

IDN60801

Issued at 7:35 am EST Monday 22 September 2014 (issued every 30 minutes, with the page automatically refreshed every 10 minutes)

About weather observations | Map of weather stations | Latest weather observations for NSW | Other Formats
Station Details ID: 047048 Name: BROKEN HILL AIRPORT AWS Lat: -32.00 Lon: 141.47 Height: 281.3 m
Data from the previous 72 hours. | See also: Recent months for locations in New South Wales
Date/Time
EST
Temp
°C
App
Temp
°C
Dew
Point
Rel
Hum
%
Delta-T
°C
Wind Press
QNH
hPa
Press
MSL
hPa
Rain
since 9 am
mm
Dir
 
Spd
km/h
Gust
km/h
Spd
kts
Gust
kts
22/07:30am 13.4 8.8 -1.0 37 5.9 NE 13 17 7 9 1026.9 1026.6 0.0
22/07:00am 10.6 5.3 -0.8 45 4.6 NE 17 17 9 9 1026.6 1026.4 0.0
22/06:30am 10.4 5.3 -1.6 43 4.7 NE 15 17 8 9 1026.4 1026.2 0.0
22/06:00am 11.2 6.6 -1.2 42 5.0 NE 13 15 7 8 1026.3 1026.0 0.0
22/05:30am 10.7 5.3 -1.4 43 4.8 ENE 17 19 9 10 1026.1 1025.8 0.0
22/05:00am 9.3 4.1 -2.9 42 4.6 E 15 17 8 9 1026.1 1025.8 0.0
22/04:30am 11.5 6.4 -2.0 39 5.4 NE 15 17 8 9 1026.2 1025.9 0.0
22/04:00am 10.8 6.4 -2.6 39 5.2 E 11 13 6 7 1025.9 1025.6 0.0
22/03:30am 11.4 7.7 -3.1 36 5.6 E 7 9 4 5 1025.9 1025.6 0.0
22/03:00am 11.9 8.1 -3.4 34 5.9 E 7 11 4 6 1025.9 1025.6 0.0
22/02:30am 10.2 7.7 -3.8 37 5.2 CALM 0 0 0 0 1026.2 1025.9 0.0
22/02:00am 9.7 5.8 -4.6 36 5.2 ESE 7 9 4 5 1026.5 1026.3 0.0
22/01:30am 9.6 7.1 -4.4 37 5.1 CALM 0 6 0 3 1026.9 1026.6 0.0
22/01:00am 10.2 6.8 -5.7 32 5.7 SSE 4 9 2 5 1027.0 1026.7 0.0
22/12:30am 11.8 7.8 -5.2 30 6.2 ESE 7 9 4 5 1027.1 1026.8 0.0
22/12:00am 12.0 9.4 -4.6 31 6.2 CALM 0 7 0 4 1027.2 1026.9 0.0
 
Date/Time
EST
Temp
°C
App
Temp
°C
Dew
Point
Rel
Hum
%
Delta-T
°C
Wind Press
QNH
hPa
Press
MSL
hPa
Rain
since 9 am
mm
Dir
 
Spd
km/h
Gust
km/h
Spd
kts
Gust
kts
21/11:30pm 12.3 7.7 -4.3 31 6.3 SE 11 13 6 7 1027.3 1027.0 0.0
21/11:00pm 12.8 7.0 -4.3 30 6.5 SE 17 19 9 10 1027.4 1027.1 0.0
21/10:30pm 12.3 6.9 -4.3 31 6.3 SE 15 17 8 9 1027.6 1027.3 0.0
21/10:00pm 12.2 7.9 -5.3 29 6.4 SE 9 13 5 7 1027.5 1027.2 0.0
21/09:30pm 13.8 8.4 -4.4 28 7.0 ESE 15 17 8 9 1027.5 1027.2 0.0
21/09:00pm 15.3 9.2 -3.6 27 7.5 ESE 19 20 10 11 1027.2 1026.9 0.0
21/08:30pm 14.5 9.2 -3.8 28 7.2 ESE 15 17 8 9 1027.0 1026.7 0.0
21/08:00pm 14.4 9.8 -4.3 27 7.2 ESE 11 15 6 8 1026.6 1026.4 0.0
21/07:30pm 14.4 9.3 -4.8 26 7.4 SE 13 15 7 8 1026.3 1026.0 0.0
21/07:00pm 16.2 11.1 -4.9 23 8.2 SE 13 17 7 9 1026.1 1025.8 0.0
21/06:30pm 19.1 12.7 -5.0 19 9.6 SSE 20 26 11 14 1026.0 1025.7 0.0
21/06:00pm 20.4 14.0 -4.7 18 10.2 SSE 20 28 11 15 1025.8 1025.5 0.0
21/05:30pm 21.1 13.9 -4.9 17 10.7 SSE 24 32 13 17 1025.6 1025.3 0.0
21/05:00pm 21.6 14.4 -5.3 16 11.0 SSE 24 32 13 17 1025.6 1025.3 0.0
21/04:30pm 21.8 14.2 -5.1 16 11.1 SSE 26 37 14 20 1025.7 1025.4 0.0
21/04:00pm 22.0 15.4 -3.4 18 10.8 SE 22 33 12 18 1025.9 1025.6 0.0
21/03:30pm 21.9 14.7 -5.0 16 11.0 SE 24 35 13 19 1026.1 1025.8 0.0
21/03:00pm 22.0 14.6 -3.4 18 10.8 SE 26 35 14 19 1026.2 1025.9 0.0
21/02:30pm 21.6 14.4 -2.3 20 10.4 SE 26 35 14 19 1026.6 1026.4 0.0
21/02:00pm 21.1 14.5 -3.4 19 10.3 SE 22 32 12 17 1026.9 1026.6 0.0
21/01:30pm 20.8 13.6 -1.7 22 9.8 ESE 26 33 14 18 1027.3 1027.0 0.0
21/01:00pm 20.1 12.9 -1.7 23 9.4 SE 26 35 14 19 1027.7 1027.4 0.0
21/12:30pm 20.1 13.1 -0.5 25 9.1 SE 26 39 14 21 1028.2 1027.9 0.0
21/12:00pm 19.5 12.7 0.5 28 8.5 SE 26 39 14 21 1028.7 1028.4 0.0
21/11:30am 18.6 11.9 1.6 32 7.8 ESE 26 35 14 19 1029.2 1028.9 0.0
21/11:00am 17.9 10.7 1.0 32 7.5 ESE 28 37 15 20 1029.7 1029.5 0.0
21/10:30am 17.1 9.3 1.9 36 6.9 ESE 32 39 17 21 1029.9 1029.7 0.0
21/10:00am 16.3 9.7 2.0 38 6.4 ESE 26 33 14 18 1030.1 1029.9 0.0
21/09:30am 15.4 9.2 1.9 40 6.0 ESE 24 33 13 18 1030.2 1030.0 0.0
21/09:00am 14.8 9.0 2.4 43 5.5 E 22 28 12 15 1029.8 1029.6 0.0
21/08:30am 13.9 8.2 2.8 47 5.0 E 22 28 12 15 1029.4 1029.1 0.0
21/08:00am 13.1 7.4 2.9 50 4.5 E 22 28 12 15 1029.1 1028.8 0.0
21/07:30am 11.5 6.3 2.5 54 4.0 E 19 24 10 13 1028.6 1028.3 0.0
21/07:00am 8.5 3.8 1.0 59 3.1 ENE 15 17 8 9 1028.2 1027.9 0.0
21/06:30am 7.7 2.9 0.2 59 3.0 ENE 15 17 8 9 1027.7 1027.4 0.0
21/06:00am 7.7 3.2 0.0 58 3.0 E 13 15 7 8 1027.5 1027.2 0.0
21/05:30am 9.2 4.0 0.1 53 3.7 E 17 19 9 10 1027.1 1026.8 0.0
21/05:00am 9.9 4.2 -0.6 48 4.2 E 19 24 10 13 1027.0 1026.7 0.0
21/04:30am 9.8 4.5 -0.7 48 4.2 ESE 17 20 9 11 1026.8 1026.5 0.0
21/04:00am 10.2 4.5 -0.6 47 4.3 SE 19 24 10 13 1026.8 1026.5 0.0
21/03:30am 10.3 4.6 -0.8 46 4.4 SE 19 22 10 12 1026.8 1026.5 0.0
21/03:00am 10.0 4.2 -1.4 45 4.5 SE 19 22 10 12 1027.0 1026.7 0.0
21/02:30am 10.1 4.7 -1.6 44 4.6 SE 17 20 9 11 1027.2 1026.9 0.0
21/02:00am 10.2 4.7 -1.8 43 4.7 SE 17 20 9 11 1027.4 1027.1 0.0
21/01:30am 10.5 4.6 -2.2 41 5.0 SSE 19 20 10 11 1027.5 1027.2 0.0
21/01:00am 10.7 5.1 -2.7 39 5.1 SE 17 20 9 11 1027.5 1027.2 0.0
21/12:30am 11.0 5.4 -2.8 38 5.3 SE 17 19 9 10 1027.4 1027.1 0.0
21/12:00am 9.9 4.2 -3.4 39 5.0 SSE 17 19 9 10 1027.3 1027.0 0.0
 
Date/Time
EST
Temp
°C
App
Temp
°C
Dew
Point
Rel
Hum
%
Delta-T
°C
Wind Press
QNH
hPa
Press
MSL
hPa
Rain
since 9 am
mm
Dir
 
Spd
km/h
Gust
km/h
Spd
kts
Gust
kts
20/11:30pm 10.2 5.3 -3.8 37 5.2 SE 13 15 7 8 1027.3 1027.0 0.0
20/11:00pm 10.9 5.5 -4.3 34 5.6 SE 15 15 8 8 1027.3 1027.0 0.0
20/10:30pm 11.4 6.1 -3.9 34 5.8 SE 15 17 8 9 1027.3 1027.0 0.0
20/10:00pm 11.8 6.5 -3.9 33 5.9 SE 15 17 8 9 1027.2 1026.9 0.0
20/09:30pm 12.1 6.7 -4.1 32 6.1 SE 15 17 8 9 1027.0 1026.7 0.0
20/09:00pm 13.7 8.0 -3.5 30 6.7 ESE 17 19 9 10 1026.9 1026.6 0.0
20/08:30pm 13.7 8.0 -3.5 30 6.7 SE 17 19 9 10 1026.4 1026.2 0.0
20/08:00pm 13.5 8.2 -3.7 30 6.7 SE 15 15 8 8 1026.1 1025.8 0.0
20/07:30pm 13.9 9.0 -3.8 29 6.9 SE 13 15 7 8 1025.7 1025.4 0.0
20/07:00pm 15.0 10.1 -3.8 27 7.4 SE 13 17 7 9 1025.4 1025.1 0.0
20/06:30pm 17.5 11.9 -3.3 24 8.5 SE 17 20 9 11 1025.0 1024.7 0.0
20/06:00pm 18.7 13.4 -4.0 21 9.2 SE 15 24 8 13 1024.7 1024.4 0.0
20/05:30pm 19.4 13.6 -4.8 19 9.8 SE 17 24 9 13 1024.5 1024.2 0.0
20/05:00pm 19.9 14.1 -4.4 19 9.9 ESE 17 24 9 13 1024.2 1023.9 0.0
20/04:30pm 20.3 14.6 -3.4 20 10.0 SE 17 26 9 14 1024.1 1023.8 0.0
20/04:00pm 20.6 15.7 -3.8 19 10.1 ESE 13 20 7 11 1024.0 1023.7 0.0
20/03:30pm 20.1 15.1 -4.2 19 10.0 SSE 13 20 7 11 1024.2 1023.9 0.0
20/03:00pm 20.3 15.0 -4.0 19 10.0 SE 15 30 8 16 1024.2 1023.9 0.0
20/02:30pm 20.3 15.0 -4.0 19 10.1 SE 15 30 8 16 1024.5 1024.2 0.0
20/02:00pm 19.9 13.9 -3.0 21 9.6 ENE 19 28 10 15 1024.8 1024.5 0.0
20/01:30pm 19.4 14.5 -3.5 21 9.5 SE 13 20 7 11 1025.3 1025.0 0.0
20/01:00pm 19.4 15.8 -3.5 21 9.5 SSW 6 17 3 9 1025.4 1025.1 0.0
20/12:30pm 19.5 14.7 -2.8 22 9.4 ESE 13 24 7 13 1025.7 1025.4 0.0
20/12:00pm 18.1 14.4 -2.8 24 8.6 SSE 7 13 4 7 1026.1 1025.8 0.0
20/11:30am 18.1 13.3 -2.8 24 8.7 SSE 13 26 7 14 1026.5 1026.3 0.0
20/11:00am 17.3 13.0 -1.9 27 8.0 SSE 11 19 6 10 1026.8 1026.5 0.0
20/10:30am 16.9 12.1 -2.2 27 8.0 ENE 13 20 7 11 1027.0 1026.7 0.0
20/10:00am 16.9 12.5 -2.2 27 7.9 E 11 22 6 12 1027.1 1026.8 0.0
20/09:30am 16.2 10.7 -1.8 29 7.5 E 17 20 9 11 1027.1 1026.8 0.0
20/09:00am 15.5 10.8 -2.0 30 7.2 ENE 13 17 7 9 1026.9 1026.6 0.0
20/08:30am 15.1 10.4 -1.5 32 6.9 E 13 15 7 8 1026.4 1026.2 0.0
20/08:00am 13.6 9.9 -0.1 39 5.8 ENE 9 11 5 6 1026.1 1025.8 0.0
20/07:30am 9.3 7.2 -0.8 49 4.0 CALM 0 2 0 1 1025.7 1025.4 0.0
20/07:00am 5.7 3.5 -1.9 58 2.8 CALM 0 0 0 0 1025.5 1025.2 0.0
20/06:30am 3.6 1.1 -3.9 58 2.6 CALM 0 0 0 0 1025.2 1024.9 0.0
20/06:00am 7.0 4.3 -2.7 50 3.6 NNE 2 6 1 3 1025.0 1024.7 0.0
20/05:30am 8.1 5.5 -2.0 49 3.9 ESE 2 6 1 3 1024.4 1024.1 0.0
20/05:00am 8.3 5.3 -2.0 48 3.9 ESE 4 7 2 4 1024.1 1023.8 0.0
20/04:30am 8.5 6.2 -2.1 47 4.1 CALM 0 6 0 3 1023.7 1023.4 0.0
20/04:00am 7.2 5.0 -1.5 54 3.3 CALM 0 0 0 0 1023.7 1023.4 0.0
20/03:30am 8.7 5.2 -1.7 48 4.0 E 7 11 4 6 1023.8 1023.5 0.0
20/03:00am 7.7 3.4 -2.0 50 3.7 ESE 11 15 6 8 1023.6 1023.3 0.0
20/02:30am 7.1 2.4 -2.1 52 3.5 ESE 13 17 7 9 1023.7 1023.4 0.0
20/02:00am 7.6 2.8 -2.4 49 3.7 SE 13 13 7 7 1023.9 1023.6 0.0
20/01:30am 8.4 4.7 -2.5 46 4.1 ESE 7 9 4 5 1024.1 1023.8 0.0
20/01:00am 8.1 4.0 -2.8 46 4.1 ESE 9 13 5 7 1024.2 1023.9 0.0
20/12:30am 9.2 4.8 -2.1 45 4.3 ESE 11 13 6 7 1024.3 1024.0 0.0
20/12:00am 8.5 3.8 -2.1 47 4.0 E 13 15 7 8 1024.0 1023.7 0.0
 
Date/Time
EST
Temp
°C
App
Temp
°C
Dew
Point
Rel
Hum
%
Delta-T
°C
Wind Press
QNH
hPa
Press
MSL
hPa
Rain
since 9 am
mm
Dir
 
Spd
km/h
Gust
km/h
Spd
kts
Gust
kts
19/11:30pm 9.0 4.7 -2.0 46 4.2 E 11 13 6 7 1024.2 1023.9 0.0
19/11:00pm 9.2 4.1 -1.8 46 4.2 E 15 17 8 9 1024.3 1024.0 0.0
19/10:30pm 9.0 3.9 -2.3 45 4.3 E 15 17 8 9 1024.5 1024.2 0.0
19/10:00pm 9.5 4.3 -2.8 42 4.7 E 15 15 8 8 1024.6 1024.3 0.0
19/09:30pm 10.2 5.5 -1.8 43 4.7 E 13 15 7 8 1024.7 1024.4 0.0
19/09:00pm 9.8 5.0 -2.5 42 4.7 E 13 15 7 8 1024.5 1024.2 0.0
19/08:30pm 11.7 6.6 -2.1 38 5.5 ESE 15 17 8 9 1024.4 1024.1 0.0
19/08:00pm 11.5 6.7 -2.3 38 5.4 SE 13 15 7 8 1024.2 1023.9 0.0
19/07:30pm 12.1 7.3 -2.9 35 5.9 SE 13 15 7 8 1023.9 1023.6 0.0
19/07:00pm 13.0 8.5 -3.3 32 6.3 SSE 11 13 6 7 1023.6 1023.3 0.0
19/06:30pm 15.1 10.3 -2.8 29 7.2 SE 13 17 7 9 1023.3 1022.9 0.0
19/06:00pm 16.7 11.9 -2.9 26 8.0 SSE 13 17 7 9 1023.1 1022.7 0.0
19/05:30pm 17.2 12.0 -3.0 25 8.3 SE 15 20 8 11 1022.6 1022.3 0.0
19/05:00pm 17.8 14.1 -3.0 24 8.6 SSW 7 9 4 5 1022.4 1022.1 0.0
19/04:30pm 18.3 14.0 -2.0 25 8.6 SE 11 22 6 12 1022.5 1022.2 0.0
19/04:00pm 18.4 14.4 -2.0 25 8.6 ESE 9 19 5 10 1022.4 1022.1 0.0
19/03:30pm 18.8 14.1 -1.6 25 8.7 WSW 13 26 7 14 1022.4 1022.1 0.0
19/03:00pm 17.9 14.0 -1.3 27 8.2 SW 9 17 5 9 1022.5 1022.2 0.0
19/02:30pm 17.2 12.5 -1.9 27 8.0 SSE 13 22 7 12 1023.0 1022.6 0.0
19/02:00pm 17.2 11.2 -1.9 27 8.0 S 20 30 11 16 1023.3 1022.9 0.0
19/01:30pm 17.8 12.8 -0.9 28 8.1 S 15 20 8 11 1023.6 1023.3 0.0
19/01:00pm 16.6 11.9 -1.5 29 7.6 SSE 13 24 7 13 1024.0 1023.7 0.0
19/12:30pm 16.9 13.0 -1.2 29 7.7 SSE 9 24 5 13 1024.5 1024.2 0.0
19/12:00pm 16.9 13.6 0.1 32 7.3 E 7 19 4 10 1024.7 1024.4 0.0
19/11:30am 16.6 11.7 -0.6 31 7.4 SSE 15 22 8 12 1025.1 1024.8 0.0
19/11:00am 15.7 11.2 -0.5 33 6.9 SE 13 20 7 11 1025.1 1024.8 0.0
19/10:30am 15.4 10.9 0.0 35 6.6 ENE 13 20 7 11 1025.3 1025.0 0.0
19/10:00am 14.8 9.2 -0.1 36 6.3 E 19 32 10 17 1025.4 1025.1 0.0
19/09:30am 14.7 9.1 -0.2 36 6.3 E 19 26 10 14 1025.4 1025.1 0.0
19/09:00am 14.2 8.6 0.1 38 6.0 E 19 24 10 13 1025.4 1025.1 0.0
19/08:30am 13.0 8.9 0.1 41 5.4 ESE 11 19 6 10 1025.2 1024.9 0.0

Other Formats:

Comma delimited format used in spreadsheet applications
http://www.bom.gov.au/fwo/IDN60801/IDN60801.94691.axf

JavaScript Object Notation format (JSON) in row-major order
http://www.bom.gov.au/fwo/IDN60801/IDN60801.94691.json